Time,TemperatureF,DewpointF,PressureIn,WindDirection,WindDirectionDegrees,WindSpeedMPH,WindSpeedGustMPH,Humidity,HourlyPrecipIn,Conditions,Clouds,dailyrainin,SoftwareType,DateUTC
2013-06-09 00:01:00,54.8,54.0,29.96,North,10,0.0,0.0,97,0.00,,,0.42,Wunderground v.1.15,2013-06-09 04:01:00,
2013-06-09 00:02:00,54.7,53.9,29.96,North,10,0.0,0.0,97,0.00,,,0.42,Wunderground v.1.15,2013-06-09 04:02:00,
2013-06-09 00:03:00,54.7,53.9,29.96,North,10,0.0,0.0,97,0.00,,,0.42,Wunderground v.1.15,2013-06-09 04:03:00,
2013-06-09 00:05:00,54.7,53.9,29.96,North,10,0.0,0.0,97,0.00,,,0.42,Wunderground v.1.15,2013-06-09 04:05:00,
2013-06-09 00:08:00,54.7,53.9,29.96,North,10,0.0,0.0,97,0.00,,,0.42,Wunderground v.1.15,2013-06-09 04:08:00,
2013-06-09 00:14:00,54.7,53.9,29.96,North,10,0.0,0.0,97,0.00,,,0.42,Wunderground v.1.15,2013-06-09 04:14:00,
2013-06-09 00:19:00,54.7,53.9,29.96,North,10,0.0,0.0,97,0.00,,,0.42,Wunderground v.1.15,2013-06-09 04:19:00,
2013-06-09 00:25:00,54.7,53.9,29.95,NE,50,0.0,1.0,97,0.00,,,0.42,Wunderground v.1.15,2013-06-09 04:25:00,
2013-06-09 00:30:00,54.7,53.9,29.94,NE,44,0.0,0.0,97,0.00,,,0.42,Wunderground v.1.15,2013-06-09 04:30:00,
2013-06-09 00:36:00,54.6,53.8,29.95,West,263,0.0,0.0,97,0.00,,,0.42,Wunderground v.1.15,2013-06-09 04:36:00,
2013-06-09 00:41:00,54.6,53.8,29.95,West,273,1.0,1.0,97,0.00,,,0.00,Wunderground v.1.15,2013-06-09 04:41:00,
2013-06-09 00:46:00,54.6,53.8,29.96,West,262,0.0,1.0,97,0.00,,,0.00,Wunderground v.1.15,2013-06-09 04:46:00,
2013-06-09 00:52:00,54.6,53.8,29.95,West,262,0.0,0.0,97,0.00,,,0.00,Wunderground v.1.15,2013-06-09 04:52:00,
2013-06-09 00:57:00,54.5,53.7,29.95,West,262,0.0,0.0,97,0.00,,,0.00,Wunderground v.1.15,2013-06-09 04:57:00,
2013-06-09 01:03:00,54.4,53.6,29.95,West,262,0.0,0.0,97,0.00,,,0.00,Wunderground v.1.15,2013-06-09 05:03:00,
2013-06-09 01:08:00,54.3,53.5,29.95,West,262,0.0,0.0,97,0.00,,,0.00,Wunderground v.1.15,2013-06-09 05:08:00,
2013-06-09 01:14:00,54.2,53.4,29.95,West,262,0.0,0.0,97,0.00,,,0.00,Wunderground v.1.15,2013-06-09 05:14:00,
2013-06-09 01:19:00,54.2,53.4,29.95,West,262,0.0,0.0,97,0.00,,,0.00,Wunderground v.1.15,2013-06-09 05:19:00,
2013-06-09 01:25:00,54.2,53.4,29.96,West,262,0.0,0.0,97,0.00,,,0.00,Wunderground v.1.15,2013-06-09 05:25:00,
2013-06-09 01:30:00,54.2,53.4,29.96,West,262,0.0,0.0,97,0.00,,,0.00,Wunderground v.1.15,2013-06-09 05:30:00,
2013-06-09 01:36:00,54.2,53.4,29.96,West,262,0.0,0.0,97,0.00,,,0.00,Wunderground v.1.15,2013-06-09 05:36:00,
2013-06-09 01:41:00,54.2,53.4,29.96,West,262,0.0,0.0,97,0.00,,,0.00,Wunderground v.1.15,2013-06-09 05:41:00,
2013-06-09 01:46:00,54.2,53.6,29.97,West,262,0.0,0.0,98,0.00,,,0.00,Wunderground v.1.15,2013-06-09 05:46:00,
2013-06-09 01:52:00,54.2,53.6,29.96,West,262,0.0,0.0,98,0.00,,,0.00,Wunderground v.1.15,2013-06-09 05:52:00,
2013-06-09 01:57:00,54.2,53.6,29.96,West,262,0.0,0.0,98,0.00,,,0.00,Wunderground v.1.15,2013-06-09 05:57:00,
2013-06-09 02:02:00,54.2,53.6,29.96,West,262,0.0,0.0,98,0.00,,,0.00,Wunderground v.1.15,2013-06-09 06:02:00,
2013-06-09 02:07:00,54.2,53.6,29.97,West,262,0.0,0.0,98,0.00,,,0.00,Wunderground v.1.15,2013-06-09 06:07:00,
2013-06-09 02:12:00,54.2,53.6,29.97,West,262,0.0,0.0,98,0.00,,,0.00,Wunderground v.1.15,2013-06-09 06:12:00,
2013-06-09 02:17:00,54.1,53.5,29.97,West,262,0.0,0.0,98,0.00,,,0.00,Wunderground v.1.15,2013-06-09 06:17:00,
2013-06-09 02:22:00,54.1,53.5,29.97,West,262,0.0,0.0,98,0.00,,,0.00,Wunderground v.1.15,2013-06-09 06:22:00,
2013-06-09 02:27:00,54.1,53.5,29.97,West,262,0.0,0.0,98,0.00,,,0.00,Wunderground v.1.15,2013-06-09 06:27:00,
2013-06-09 02:32:00,54.2,53.6,29.97,West,262,0.0,0.0,98,0.00,,,0.00,Wunderground v.1.15,2013-06-09 06:32:00,
2013-06-09 02:37:00,54.3,53.7,29.97,West,262,0.0,0.0,98,0.00,,,0.00,Wunderground v.1.15,2013-06-09 06:37:00,
2013-06-09 02:42:00,54.4,53.8,29.97,West,262,0.0,0.0,98,0.00,,,0.00,Wunderground v.1.15,2013-06-09 06:42:00,
2013-06-09 02:47:00,54.5,53.9,29.97,West,262,0.0,0.0,98,0.00,,,0.00,Wunderground v.1.15,2013-06-09 06:47:00,
2013-06-09 02:52:00,54.7,54.1,29.97,WNW,294,0.0,3.0,98,0.00,,,0.00,Wunderground v.1.15,2013-06-09 06:52:00,
2013-06-09 02:57:00,54.8,54.2,29.97,SW,224,0.0,3.0,98,0.00,,,0.00,Wunderground v.1.15,2013-06-09 06:57:00,
2013-06-09 03:02:00,54.8,54.2,29.96,WSW,255,0.0,1.0,98,0.00,,,0.00,Wunderground v.1.15,2013-06-09 07:02:00,
2013-06-09 03:07:00,54.9,54.3,29.96,WSW,254,0.0,1.0,98,0.00,,,0.00,Wunderground v.1.15,2013-06-09 07:07:00,
2013-06-09 03:12:00,54.9,54.3,29.96,WSW,254,0.0,1.0,98,0.00,,,0.00,Wunderground v.1.15,2013-06-09 07:12:00,
2013-06-09 03:17:00,54.9,54.3,29.96,WSW,254,0.0,1.0,98,0.00,,,0.00,Wunderground v.1.15,2013-06-09 07:17:00,
2013-06-09 03:22:00,54.9,54.3,29.96,WNW,302,0.0,4.0,98,0.00,,,0.00,Wunderground v.1.15,2013-06-09 07:22:00,
2013-06-09 03:27:00,54.9,54.3,29.96,WNW,294,1.0,4.0,98,0.00,,,0.00,Wunderground v.1.15,2013-06-09 07:27:00,
2013-06-09 03:32:00,54.9,54.3,29.96,WNW,294,0.0,0.0,98,0.00,,,0.00,Wunderground v.1.15,2013-06-09 07:32:00,
2013-06-09 03:37:00,54.9,54.3,29.96,WNW,294,0.0,0.0,98,0.00,,,0.00,Wunderground v.1.15,2013-06-09 07:37:00,
2013-06-09 03:42:00,54.8,54.2,29.97,WNW,294,0.0,1.0,98,0.00,,,0.00,Wunderground v.1.15,2013-06-09 07:42:00,
2013-06-09 03:47:00,54.9,54.3,29.97,WNW,294,1.0,2.0,98,0.00,,,0.00,Wunderground v.1.15,2013-06-09 07:47:00,
2013-06-09 03:52:00,54.9,54.3,29.97,WNW,294,0.0,0.0,98,0.00,,,0.00,Wunderground v.1.15,2013-06-09 07:52:00,
2013-06-09 03:57:00,54.8,54.2,29.97,WNW,298,1.0,3.0,98,0.00,,,0.00,Wunderground v.1.15,2013-06-09 07:57:00,
2013-06-09 04:02:00,54.7,54.1,29.97,NW,305,1.0,2.0,98,0.00,,,0.00,Wunderground v.1.15,2013-06-09 08:02:00,
2013-06-09 04:07:00,54.7,54.1,29.97,NW,313,1.0,3.0,98,0.00,,,0.00,Wunderground v.1.15,2013-06-09 08:07:00,
2013-06-09 04:12:00,54.7,54.1,29.97,NW,323,1.0,4.0,98,0.00,,,0.00,Wunderground v.1.15,2013-06-09 08:12:00,
2013-06-09 04:17:00,54.6,53.8,29.97,WNW,290,1.0,4.0,97,0.00,,,0.00,Wunderground v.1.15,2013-06-09 08:17:00,
2013-06-09 04:22:00,54.5,53.7,29.97,WNW,299,0.0,1.0,97,0.00,,,0.00,Wunderground v.1.15,2013-06-09 08:22:00,
2013-06-09 04:27:00,54.4,53.6,29.97,WNW,298,2.0,2.0,97,0.00,,,0.00,Wunderground v.1.15,2013-06-09 08:27:00,
2013-06-09 04:32:00,54.5,53.7,29.97,WNW,291,0.0,4.0,97,0.00,,,0.00,Wunderground v.1.15,2013-06-09 08:32:00,
2013-06-09 04:37:00,54.5,53.7,29.98,WNW,288,0.0,4.0,97,0.00,,,0.00,Wunderground v.1.15,2013-06-09 08:37:00,
2013-06-09 04:42:00,54.5,53.7,29.98,NW,309,1.0,1.0,97,0.00,,,0.00,Wunderground v.1.15,2013-06-09 08:42:00,
2013-06-09 04:47:00,54.5,53.7,29.98,NW,325,0.0,1.0,97,0.00,,,0.00,Wunderground v.1.15,2013-06-09 08:47:00,
2013-06-09 04:52:00,54.5,53.7,29.98,NW,319,0.0,1.0,97,0.00,,,0.00,Wunderground v.1.15,2013-06-09 08:52:00,
2013-06-09 04:57:00,54.5,53.7,29.99,WNW,299,1.0,2.0,97,0.00,,,0.00,Wunderground v.1.15,2013-06-09 08:57:00,
2013-06-09 05:02:00,54.5,53.7,29.99,WNW,292,0.0,1.0,97,0.00,,,0.00,Wunderground v.1.15,2013-06-09 09:02:00,
2013-06-09 05:07:00,54.5,53.7,29.99,SW,231,2.0,3.0,97,0.00,,,0.00,Wunderground v.1.15,2013-06-09 09:07:00,
2013-06-09 05:12:00,54.5,53.7,29.99,NW,311,1.0,2.0,97,0.00,,,0.00,Wunderground v.1.15,2013-06-09 09:12:00,
2013-06-09 05:18:00,54.5,53.7,29.99,NW,307,2.0,2.0,97,0.00,,,0.00,Wunderground v.1.15,2013-06-09 09:18:00,
2013-06-09 05:23:00,54.5,53.7,29.99,NW,311,1.0,4.0,97,0.00,,,0.00,Wunderground v.1.15,2013-06-09 09:23:00,
2013-06-09 05:28:00,54.5,53.7,29.99,NW,307,2.0,4.0,97,0.00,,,0.00,Wunderground v.1.15,2013-06-09 09:28:00,
2013-06-09 05:33:00,54.4,53.6,30.00,WNW,283,0.0,3.0,97,0.00,,,0.00,Wunderground v.1.15,2013-06-09 09:33:00,
2013-06-09 05:38:00,54.4,53.6,30.00,WNW,290,2.0,4.0,97,0.00,,,0.00,Wunderground v.1.15,2013-06-09 09:38:00,
2013-06-09 05:43:00,54.4,53.6,30.00,NW,304,0.0,3.0,97,0.00,,,0.00,Wunderground v.1.15,2013-06-09 09:43:00,
2013-06-09 05:48:00,54.3,53.5,30.00,WNW,295,1.0,3.0,97,0.00,,,0.00,Wunderground v.1.15,2013-06-09 09:48:00,
2013-06-09 05:53:00,54.2,53.4,30.00,West,262,0.0,4.0,97,0.00,,,0.00,Wunderground v.1.15,2013-06-09 09:53:00,
2013-06-09 05:58:00,54.1,53.3,30.00,WNW,290,0.0,4.0,97,0.00,,,0.00,Wunderground v.1.15,2013-06-09 09:58:00,
2013-06-09 06:03:00,54.0,53.2,30.00,WNW,297,1.0,3.0,97,0.00,,,0.00,Wunderground v.1.15,2013-06-09 10:03:00,
2013-06-09 06:09:00,53.9,53.1,30.00,WNW,290,0.0,0.0,97,0.00,,,0.00,Wunderground v.1.15,2013-06-09 10:09:00,
2013-06-09 06:14:00,53.9,53.1,30.01,WNW,299,0.0,1.0,97,0.00,,,0.00,Wunderground v.1.15,2013-06-09 10:14:00,
2013-06-09 06:19:00,53.9,53.1,30.01,WNW,288,0.0,0.0,97,0.00,,,0.00,Wunderground v.1.15,2013-06-09 10:19:00,
2013-06-09 06:24:00,53.9,53.1,30.01,WNW,284,0.0,1.0,97,0.00,,,0.00,Wunderground v.1.15,2013-06-09 10:24:00,
2013-06-09 06:29:00,53.9,53.1,30.01,WNW,284,0.0,0.0,97,0.00,,,0.00,Wunderground v.1.15,2013-06-09 10:29:00,
2013-06-09 06:34:00,53.9,53.1,30.02,WNW,283,0.0,0.0,97,0.00,,,0.00,Wunderground v.1.15,2013-06-09 10:34:00,
2013-06-09 06:39:00,54.0,53.2,30.02,WNW,298,1.0,1.0,97,0.00,,,0.00,Wunderground v.1.15,2013-06-09 10:39:00,
2013-06-09 06:44:00,54.1,53.3,30.02,WNW,299,0.0,1.0,97,0.00,,,0.00,Wunderground v.1.15,2013-06-09 10:44:00,
2013-06-09 06:49:00,54.2,53.1,30.02,WNW,301,0.0,0.0,96,0.00,,,0.00,Wunderground v.1.15,2013-06-09 10:49:00,
2013-06-09 06:54:00,54.3,53.2,30.03,WSW,242,0.0,1.0,96,0.00,,,0.00,Wunderground v.1.15,2013-06-09 10:54:00,
2013-06-09 06:59:00,54.4,53.3,30.03,WSW,242,0.0,0.0,96,0.00,,,0.00,Wunderground v.1.15,2013-06-09 10:59:00,
2013-06-09 07:04:00,54.4,53.3,30.03,WSW,242,0.0,1.0,96,0.00,,,0.00,Wunderground v.1.15,2013-06-09 11:04:00,
2013-06-09 07:09:00,54.3,53.2,30.03,SW,236,0.0,0.0,96,0.00,,,0.00,Wunderground v.1.15,2013-06-09 11:09:00,
2013-06-09 07:14:00,54.3,53.2,30.03,West,259,0.0,1.0,96,0.00,,,0.00,Wunderground v.1.15,2013-06-09 11:14:00,
2013-06-09 07:19:00,54.3,53.2,30.03,SW,225,0.0,0.0,96,0.00,,,0.00,Wunderground v.1.15,2013-06-09 11:19:00,
2013-06-09 07:24:00,54.3,53.2,30.04,SW,224,0.0,2.0,96,0.00,,,0.00,Wunderground v.1.15,2013-06-09 11:24:00,
2013-06-09 07:29:00,54.4,53.3,30.04,SW,224,0.0,0.0,96,0.00,,,0.00,Wunderground v.1.15,2013-06-09 11:29:00,
2013-06-09 07:34:00,54.4,53.3,30.04,SW,223,0.0,0.0,96,0.00,,,0.00,Wunderground v.1.15,2013-06-09 11:34:00,
2013-06-09 07:39:00,54.5,53.4,30.04,SW,224,0.0,0.0,96,0.00,,,0.00,Wunderground v.1.15,2013-06-09 11:39:00,
2013-06-09 07:44:00,54.5,53.1,30.04,SW,224,0.0,0.0,95,0.00,,,0.00,Wunderground v.1.15,2013-06-09 11:44:00,
2013-06-09 07:49:00,54.6,53.2,30.04,SW,224,0.0,0.0,95,0.00,,,0.00,Wunderground v.1.15,2013-06-09 11:49:00,
2013-06-09 07:54:00,54.7,53.3,30.04,SW,224,0.0,0.0,95,0.00,,,0.00,Wunderground v.1.15,2013-06-09 11:54:00,
2013-06-09 07:59:00,54.8,53.7,30.05,SW,224,0.0,0.0,96,0.00,,,0.00,Wunderground v.1.15,2013-06-09 11:59:00,
2013-06-09 08:04:00,54.8,53.4,30.05,SW,223,0.0,0.0,95,0.00,,,0.00,Wunderground v.1.15,2013-06-09 12:04:00,
2013-06-09 08:09:00,54.9,53.5,30.04,SW,224,0.0,0.0,95,0.00,,,0.00,Wunderground v.1.15,2013-06-09 12:09:00,
2013-06-09 08:14:00,55.2,54.1,30.04,SW,223,0.0,0.0,96,0.00,,,0.00,Wunderground v.1.15,2013-06-09 12:14:00,
2013-06-09 08:19:00,55.4,54.0,30.04,SSE,152,0.0,0.0,95,0.00,,,0.00,Wunderground v.1.15,2013-06-09 12:19:00,
2013-06-09 08:24:00,55.8,54.4,30.04,SSE,155,0.0,1.0,95,0.00,,,0.00,Wunderground v.1.15,2013-06-09 12:24:00,
2013-06-09 08:29:00,55.8,53.8,30.05,NNW,333,0.0,1.0,93,0.00,,,0.00,Wunderground v.1.15,2013-06-09 12:29:00,
2013-06-09 08:34:00,55.9,53.9,30.05,ENE,78,1.0,2.0,93,0.00,,,0.00,Wunderground v.1.15,2013-06-09 12:34:00,
2013-06-09 08:39:00,55.9,53.6,30.05,East,81,0.0,1.0,92,0.00,,,0.00,Wunderground v.1.15,2013-06-09 12:39:00,
2013-06-09 08:44:00,56.1,54.1,30.05,East,81,0.0,1.0,93,0.00,,,0.00,Wunderground v.1.15,2013-06-09 12:44:00,
2013-06-09 08:49:00,56.5,54.2,30.05,East,81,0.0,0.0,92,0.00,,,0.00,Wunderground v.1.15,2013-06-09 12:49:00,
2013-06-09 08:54:00,56.5,53.9,30.05,SE,137,1.0,2.0,91,0.00,,,0.00,Wunderground v.1.15,2013-06-09 12:54:00,
2013-06-09 08:59:00,56.4,53.5,30.05,WSW,246,0.0,0.0,90,0.00,,,0.00,Wunderground v.1.15,2013-06-09 12:59:00,
2013-06-09 09:04:00,56.6,54.0,30.05,WSW,246,0.0,0.0,91,0.00,,,0.00,Wunderground v.1.15,2013-06-09 13:04:00,
2013-06-09 09:09:00,56.8,54.2,30.05,ESE,122,1.0,1.0,91,0.00,,,0.00,Wunderground v.1.15,2013-06-09 13:09:00,
2013-06-09 09:14:00,57.0,54.1,30.06,SSE,150,1.0,2.0,90,0.00,,,0.00,Wunderground v.1.15,2013-06-09 13:14:00,
2013-06-09 09:19:00,57.0,54.1,30.06,SSE,152,1.0,1.0,90,0.00,,,0.00,Wunderground v.1.15,2013-06-09 13:19:00,
2013-06-09 09:24:00,57.3,54.1,30.06,West,259,0.0,1.0,89,0.00,,,0.00,Wunderground v.1.15,2013-06-09 13:24:00,
2013-06-09 09:29:00,57.6,54.4,30.06,SE,146,0.0,1.0,89,0.00,,,0.00,Wunderground v.1.15,2013-06-09 13:29:00,
2013-06-09 09:34:00,57.9,54.4,30.06,South,172,0.0,1.0,88,0.00,,,0.00,Wunderground v.1.15,2013-06-09 13:34:00,
2013-06-09 09:39:00,58.1,54.9,30.06,SE,125,0.0,0.0,89,0.00,,,0.00,Wunderground v.1.15,2013-06-09 13:39:00,
2013-06-09 09:44:00,58.2,55.0,30.06,East,80,0.0,1.0,89,0.00,,,0.00,Wunderground v.1.15,2013-06-09 13:44:00,
2013-06-09 09:49:00,57.9,54.4,30.06,WSW,239,0.0,0.0,88,0.00,,,0.00,Wunderground v.1.15,2013-06-09 13:49:00,
2013-06-09 09:54:00,58.0,55.1,30.06,WSW,246,1.0,2.0,90,0.00,,,0.00,Wunderground v.1.15,2013-06-09 13:54:00,
2013-06-09 09:59:00,58.0,55.1,30.06,SSE,165,0.0,1.0,90,0.00,,,0.00,Wunderground v.1.15,2013-06-09 13:59:00,
2013-06-09 10:04:00,58.4,55.5,30.06,WSW,255,0.0,1.0,90,0.00,,,0.00,Wunderground v.1.15,2013-06-09 14:04:00,
2013-06-09 10:09:00,58.6,55.1,30.06,WNW,299,1.0,3.0,88,0.00,,,0.00,Wunderground v.1.15,2013-06-09 14:09:00,
2013-06-09 10:14:00,58.8,55.6,30.06,SW,221,0.0,3.0,89,0.00,,,0.00,Wunderground v.1.15,2013-06-09 14:14:00,
2013-06-09 10:19:00,59.1,55.9,30.06,SE,131,0.0,0.0,89,0.00,,,0.00,Wunderground v.1.15,2013-06-09 14:19:00,
2013-06-09 10:24:00,59.5,55.0,30.06,ENE,65,2.0,2.0,85,0.00,,,0.00,Wunderground v.1.15,2013-06-09 14:24:00,
2013-06-09 10:29:00,59.7,55.8,30.05,SW,232,1.0,2.0,87,0.00,,,0.00,Wunderground v.1.15,2013-06-09 14:29:00,
2013-06-09 10:34:00,60.2,56.0,30.05,NW,323,3.0,3.0,86,0.00,,,0.00,Wunderground v.1.15,2013-06-09 14:34:00,
2013-06-09 10:39:00,59.9,55.4,30.05,NW,315,0.0,1.0,85,0.00,,,0.00,Wunderground v.1.15,2013-06-09 14:39:00,
2013-06-09 10:44:00,59.9,55.7,30.05,West,271,0.0,3.0,86,0.00,,,0.00,Wunderground v.1.15,2013-06-09 14:44:00,
2013-06-09 10:49:00,60.1,55.2,30.05,SW,214,0.0,1.0,84,0.00,,,0.00,Wunderground v.1.15,2013-06-09 14:49:00,
2013-06-09 10:54:00,60.5,55.6,30.06,WNW,284,2.0,3.0,84,0.00,,,0.00,Wunderground v.1.15,2013-06-09 14:54:00,
2013-06-09 10:59:00,61.2,56.3,30.06,NNW,347,0.0,1.0,84,0.00,,,0.00,Wunderground v.1.15,2013-06-09 14:59:00,
2013-06-09 11:04:00,62.0,56.4,30.05,NW,313,2.0,7.0,82,0.00,,,0.00,Wunderground v.1.15,2013-06-09 15:04:00,
2013-06-09 11:09:00,61.9,55.7,30.06,West,277,1.0,4.0,80,0.00,,,0.00,Wunderground v.1.15,2013-06-09 15:09:00,
2013-06-09 11:14:00,61.8,55.2,30.06,NW,323,5.0,7.0,79,0.00,,,0.00,Wunderground v.1.15,2013-06-09 15:14:00,
2013-06-09 11:19:00,61.6,55.7,30.06,North,3,3.0,4.0,81,0.00,,,0.00,Wunderground v.1.15,2013-06-09 15:19:00,
2013-06-09 11:24:00,61.3,55.4,30.05,SE,130,1.0,7.0,81,0.00,,,0.00,Wunderground v.1.15,2013-06-09 15:24:00,
2013-06-09 11:29:00,61.3,55.4,30.05,West,262,2.0,2.0,81,0.00,,,0.00,Wunderground v.1.15,2013-06-09 15:29:00,
2013-06-09 11:34:00,61.1,55.6,30.06,NW,304,0.0,6.0,82,0.00,,,0.00,Wunderground v.1.15,2013-06-09 15:34:00,
2013-06-09 11:39:00,61.1,55.2,30.06,NNW,337,2.0,2.0,81,0.00,,,0.00,Wunderground v.1.15,2013-06-09 15:39:00,
2013-06-09 11:44:00,61.2,55.3,30.06,WNW,292,0.0,4.0,81,0.00,,,0.00,Wunderground v.1.15,2013-06-09 15:44:00,
2013-06-09 11:49:00,61.2,55.7,30.06,SSE,167,1.0,1.0,82,0.00,,,0.00,Wunderground v.1.15,2013-06-09 15:49:00,
2013-06-09 11:54:00,61.1,55.2,30.06,NW,318,0.0,4.0,81,0.00,,,0.00,Wunderground v.1.15,2013-06-09 15:54:00,
2013-06-09 11:59:00,61.1,55.9,30.06,SSE,150,0.0,1.0,83,0.00,,,0.00,Wunderground v.1.15,2013-06-09 15:59:00,
2013-06-09 12:04:00,61.6,56.4,30.06,NW,316,0.0,4.0,83,0.00,,,0.00,Wunderground v.1.15,2013-06-09 16:04:00,
2013-06-09 12:09:00,62.3,55.7,30.06,NNW,328,3.0,3.0,79,0.00,,,0.00,Wunderground v.1.15,2013-06-09 16:09:00,
2013-06-09 12:14:00,62.8,55.8,30.06,WNW,292,0.0,4.0,78,0.00,,,0.00,Wunderground v.1.15,2013-06-09 16:14:00,
2013-06-09 12:19:00,63.3,56.7,30.05,WNW,299,3.0,3.0,79,0.00,,,0.00,Wunderground v.1.15,2013-06-09 16:19:00,
2013-06-09 12:24:00,63.6,55.9,30.05,SW,221,2.0,4.0,76,0.00,,,0.00,Wunderground v.1.15,2013-06-09 16:24:00,
2013-06-09 12:29:00,63.8,57.2,30.05,West,267,2.0,2.0,79,0.00,,,0.00,Wunderground v.1.15,2013-06-09 16:29:00,
2013-06-09 12:34:00,64.0,57.0,30.04,WSW,249,7.0,7.0,78,0.00,,,0.00,Wunderground v.1.15,2013-06-09 16:34:00,
2013-06-09 12:39:00,63.8,55.7,30.05,NW,318,4.0,6.0,75,0.00,,,0.00,Wunderground v.1.15,2013-06-09 16:39:00,
2013-06-09 12:44:00,63.6,56.3,30.05,WNW,302,2.0,6.0,77,0.00,,,0.00,Wunderground v.1.15,2013-06-09 16:44:00,
2013-06-09 12:49:00,63.7,56.4,30.04,SW,231,1.0,2.0,77,0.00,,,0.00,Wunderground v.1.15,2013-06-09 16:49:00,
2013-06-09 12:54:00,64.3,56.6,30.04,ESE,102,0.0,6.0,76,0.00,,,0.00,Wunderground v.1.15,2013-06-09 16:54:00,
2013-06-09 12:59:00,64.6,56.5,30.04,WSW,254,1.0,2.0,75,0.00,,,0.00,Wunderground v.1.15,2013-06-09 16:59:00,
2013-06-09 13:04:00,64.7,56.2,30.04,WNW,299,1.0,7.0,74,0.00,,,0.00,Wunderground v.1.15,2013-06-09 17:04:00,
2013-06-09 13:09:00,64.4,56.7,30.04,NW,316,2.0,2.0,76,0.00,,,0.00,Wunderground v.1.15,2013-06-09 17:09:00,
2013-06-09 13:14:00,64.1,56.0,30.04,NW,304,6.0,9.0,75,0.00,,,0.00,Wunderground v.1.15,2013-06-09 17:14:00,
2013-06-09 13:19:00,63.8,55.4,30.04,NW,315,1.0,3.0,74,0.00,,,0.00,Wunderground v.1.15,2013-06-09 17:19:00,
2013-06-09 13:24:00,63.7,55.6,30.04,NW,312,3.0,6.0,75,0.00,,,0.00,Wunderground v.1.15,2013-06-09 17:24:00,
2013-06-09 13:29:00,64.6,56.1,30.04,NNW,330,5.0,10.0,74,0.00,,,0.00,Wunderground v.1.15,2013-06-09 17:29:00,
2013-06-09 13:34:00,65.1,55.8,30.03,SW,230,2.0,10.0,72,0.00,,,0.00,Wunderground v.1.15,2013-06-09 17:34:00,
2013-06-09 13:39:00,65.0,55.0,30.03,WSW,250,4.0,5.0,70,0.00,,,0.00,Wunderground v.1.15,2013-06-09 17:39:00,
2013-06-09 13:44:00,64.8,55.9,30.03,NW,323,4.0,12.0,73,0.00,,,0.00,Wunderground v.1.15,2013-06-09 17:44:00,
2013-06-09 13:49:00,65.0,57.2,30.03,WSW,239,0.0,3.0,76,0.00,,,0.00,Wunderground v.1.15,2013-06-09 17:49:00,
2013-06-09 13:54:00,65.9,57.7,30.04,WNW,283,1.0,9.0,75,0.00,,,0.00,Wunderground v.1.15,2013-06-09 17:54:00,
2013-06-09 13:59:00,67.0,58.1,30.04,WNW,286,3.0,3.0,73,0.00,,,0.00,Wunderground v.1.15,2013-06-09 17:59:00,
2013-06-09 14:04:00,66.9,55.6,30.04,SW,224,4.0,8.0,67,0.00,,,0.00,Wunderground v.1.15,2013-06-09 18:04:00,
2013-06-09 14:09:00,66.0,55.9,30.04,NW,314,6.0,8.0,70,0.00,,,0.00,Wunderground v.1.15,2013-06-09 18:09:00,
2013-06-09 14:14:00,65.8,55.7,30.04,WNW,291,4.0,8.0,70,0.00,,,0.00,Wunderground v.1.15,2013-06-09 18:14:00,
2013-06-09 14:19:00,65.8,55.7,30.03,WSW,254,2.0,3.0,70,0.00,,,0.00,Wunderground v.1.15,2013-06-09 18:19:00,
2013-06-09 14:24:00,65.8,56.1,30.04,NW,308,1.0,8.0,71,0.00,,,0.00,Wunderground v.1.15,2013-06-09 18:24:00,
2013-06-09 14:29:00,65.7,55.6,30.04,NW,316,2.0,3.0,70,0.00,,,0.00,Wunderground v.1.15,2013-06-09 18:29:00,
2013-06-09 14:34:00,66.0,56.7,30.04,NW,311,3.0,9.0,72,0.00,,,0.00,Wunderground v.1.15,2013-06-09 18:34:00,
2013-06-09 14:39:00,66.8,56.3,30.03,NNW,342,4.0,11.0,69,0.00,,,0.00,Wunderground v.1.15,2013-06-09 18:39:00,
2013-06-09 14:44:00,66.7,55.8,30.04,NW,318,3.0,11.0,68,0.00,,,0.00,Wunderground v.1.15,2013-06-09 18:44:00,
2013-06-09 14:49:00,67.0,55.3,30.03,WNW,290,5.0,6.0,66,0.00,,,0.00,Wunderground v.1.15,2013-06-09 18:49:00,
2013-06-09 14:54:00,67.5,54.5,30.03,West,276,3.0,8.0,63,0.00,,,0.00,Wunderground v.1.15,2013-06-09 18:54:00,
2013-06-09 14:59:00,67.2,52.4,30.04,WNW,288,3.0,5.0,59,0.00,,,0.00,Wunderground v.1.15,2013-06-09 18:59:00,
2013-06-09 15:04:00,67.0,52.7,30.03,SW,236,1.0,5.0,60,0.00,,,0.00,Wunderground v.1.15,2013-06-09 19:04:00,
2013-06-09 15:09:00,66.7,53.7,30.03,SW,222,0.0,3.0,63,0.00,,,0.00,Wunderground v.1.15,2013-06-09 19:09:00,
2013-06-09 15:14:00,67.2,54.2,30.03,West,276,1.0,3.0,63,0.00,,,0.00,Wunderground v.1.15,2013-06-09 19:14:00,
2013-06-09 15:19:00,68.0,54.5,30.03,West,269,4.0,4.0,62,0.00,,,0.00,Wunderground v.1.15,2013-06-09 19:19:00,
2013-06-09 15:24:00,67.6,52.8,30.03,NW,321,3.0,9.0,59,0.00,,,0.00,Wunderground v.1.15,2013-06-09 19:24:00,
2013-06-09 15:29:00,67.4,53.0,30.03,West,266,3.0,5.0,60,0.00,,,0.00,Wunderground v.1.15,2013-06-09 19:29:00,
2013-06-09 15:34:00,68.1,54.6,30.04,NW,307,1.0,11.0,62,0.00,,,0.00,Wunderground v.1.15,2013-06-09 19:34:00,
2013-06-09 15:39:00,68.3,53.4,30.04,NW,318,6.0,6.0,59,0.00,,,0.00,Wunderground v.1.15,2013-06-09 19:39:00,
2013-06-09 15:44:00,68.1,54.6,30.04,NW,322,2.0,6.0,62,0.00,,,0.00,Wunderground v.1.15,2013-06-09 19:44:00,
2013-06-09 15:49:00,68.6,53.7,30.04,WSW,242,3.0,3.0,59,0.00,,,0.00,Wunderground v.1.15,2013-06-09 19:49:00,
2013-06-09 15:54:00,70.1,55.6,30.03,SSW,209,4.0,5.0,60,0.00,,,0.00,Wunderground v.1.15,2013-06-09 19:54:00,
2013-06-09 15:59:00,70.8,54.3,30.03,WNW,284,4.0,4.0,56,0.00,,,0.00,Wunderground v.1.15,2013-06-09 19:59:00,
2013-06-09 16:04:00,70.4,51.9,30.03,WNW,301,4.0,12.0,52,0.00,,,0.00,Wunderground v.1.15,2013-06-09 20:04:00,
2013-06-09 16:09:00,70.4,53.5,30.03,NW,308,8.0,8.0,55,0.00,,,0.00,Wunderground v.1.15,2013-06-09 20:09:00,
2013-06-09 16:14:00,70.2,51.7,30.03,WSW,254,4.0,9.0,52,0.00,,,0.00,Wunderground v.1.15,2013-06-09 20:14:00,
2013-06-09 16:19:00,70.3,53.4,30.03,WNW,283,3.0,4.0,55,0.00,,,0.00,Wunderground v.1.15,2013-06-09 20:19:00,
2013-06-09 16:24:00,70.8,54.3,30.03,SSE,155,0.0,8.0,56,0.00,,,0.00,Wunderground v.1.15,2013-06-09 20:24:00,
2013-06-09 16:29:00,70.4,53.5,30.03,NNW,344,2.0,3.0,55,0.00,,,0.00,Wunderground v.1.15,2013-06-09 20:29:00,
2013-06-09 16:34:00,70.0,54.1,30.03,NNW,333,2.0,8.0,57,0.00,,,0.00,Wunderground v.1.15,2013-06-09 20:34:00,
2013-06-09 16:39:00,70.2,53.3,30.03,West,260,5.0,7.0,55,0.00,,,0.00,Wunderground v.1.15,2013-06-09 20:39:00,
2013-06-09 16:44:00,70.1,53.7,30.03,WNW,297,4.0,7.0,56,0.00,,,0.00,Wunderground v.1.15,2013-06-09 20:44:00,
2013-06-09 16:49:00,69.4,52.5,30.03,WSW,254,2.0,3.0,55,0.00,,,0.00,Wunderground v.1.15,2013-06-09 20:49:00,
2013-06-09 16:54:00,68.7,52.8,30.03,West,279,3.0,4.0,57,0.00,,,0.00,Wunderground v.1.15,2013-06-09 20:54:00,
2013-06-09 16:59:00,69.3,52.9,30.03,NW,305,0.0,2.0,56,0.00,,,0.00,Wunderground v.1.15,2013-06-09 20:59:00,
2013-06-09 17:04:00,70.6,54.6,30.03,SW,218,4.0,6.0,57,0.00,,,0.00,Wunderground v.1.15,2013-06-09 21:04:00,
2013-06-09 17:09:00,70.7,53.7,30.03,NW,317,3.0,4.0,55,0.00,,,0.00,Wunderground v.1.15,2013-06-09 21:09:00,
2013-06-09 17:14:00,71.2,55.2,30.03,NW,325,3.0,5.0,57,0.00,,,0.00,Wunderground v.1.15,2013-06-09 21:14:00,
2013-06-09 17:19:00,70.9,52.4,30.03,SSE,155,1.0,4.0,52,0.00,,,0.00,Wunderground v.1.15,2013-06-09 21:19:00,
2013-06-09 17:24:00,71.1,54.1,30.03,SSE,147,0.0,7.0,55,0.00,,,0.00,Wunderground v.1.15,2013-06-09 21:24:00,
2013-06-09 17:29:00,71.7,54.7,30.03,West,274,0.0,1.0,55,0.00,,,0.00,Wunderground v.1.15,2013-06-09 21:29:00,
2013-06-09 17:34:00,71.4,53.4,30.03,WSW,249,0.0,8.0,53,0.00,,,0.00,Wunderground v.1.15,2013-06-09 21:34:00,
2013-06-09 17:39:00,71.2,53.2,30.03,WSW,251,2.0,8.0,53,0.00,,,0.00,Wunderground v.1.15,2013-06-09 21:39:00,
2013-06-09 17:44:00,70.6,52.6,30.03,NW,321,5.0,8.0,53,0.00,,,0.00,Wunderground v.1.15,2013-06-09 21:44:00,
2013-06-09 17:49:00,70.4,52.4,30.03,NW,311,2.0,4.0,53,0.00,,,0.00,Wunderground v.1.15,2013-06-09 21:49:00,
2013-06-09 17:54:00,70.6,53.1,30.03,SW,217,0.0,6.0,54,0.00,,,0.00,Wunderground v.1.15,2013-06-09 21:54:00,
2013-06-09 17:59:00,71.1,53.1,30.03,WNW,283,3.0,4.0,53,0.00,,,0.00,Wunderground v.1.15,2013-06-09 21:59:00,
2013-06-09 18:04:00,70.7,52.7,30.03,WSW,249,2.0,6.0,53,0.00,,,0.00,Wunderground v.1.15,2013-06-09 22:04:00,
2013-06-09 18:09:00,70.9,54.9,30.03,South,188,3.0,3.0,57,0.00,,,0.00,Wunderground v.1.15,2013-06-09 22:09:00,
2013-06-09 18:14:00,71.0,53.0,30.03,NW,317,3.0,4.0,53,0.00,,,0.00,Wunderground v.1.15,2013-06-09 22:14:00,
2013-06-09 18:20:00,71.0,53.5,30.03,WNW,287,2.0,2.0,54,0.00,,,0.00,Wunderground v.1.15,2013-06-09 22:20:00,
2013-06-09 18:25:00,70.7,53.2,30.04,WNW,290,0.0,4.0,54,0.00,,,0.00,Wunderground v.1.15,2013-06-09 22:25:00,
2013-06-09 18:30:00,70.4,53.5,30.04,West,281,0.0,2.0,55,0.00,,,0.00,Wunderground v.1.15,2013-06-09 22:30:00,
2013-06-09 18:35:00,70.3,52.9,30.03,West,266,1.0,4.0,54,0.00,,,0.00,Wunderground v.1.15,2013-06-09 22:35:00,
2013-06-09 18:40:00,70.5,52.5,30.04,WSW,246,2.0,4.0,53,0.00,,,0.00,Wunderground v.1.15,2013-06-09 22:40:00,
2013-06-09 18:45:00,70.3,52.4,30.04,West,259,0.0,4.0,53,0.00,,,0.00,Wunderground v.1.15,2013-06-09 22:45:00,
2013-06-09 18:50:00,70.6,53.1,30.04,West,277,0.0,1.0,54,0.00,,,0.00,Wunderground v.1.15,2013-06-09 22:50:00,
2013-06-09 18:55:00,70.3,52.4,30.04,West,271,3.0,4.0,53,0.00,,,0.00,Wunderground v.1.15,2013-06-09 22:55:00,
2013-06-09 19:00:00,69.9,52.5,30.04,WSW,242,0.0,2.0,54,0.00,,,0.00,Wunderground v.1.15,2013-06-09 23:00:00,
2013-06-09 19:05:00,70.0,52.6,30.04,WNW,292,0.0,2.0,54,0.00,,,0.00,Wunderground v.1.15,2013-06-09 23:05:00,
2013-06-09 19:10:00,70.0,53.1,30.04,WNW,285,2.0,2.0,55,0.00,,,0.00,Wunderground v.1.15,2013-06-09 23:10:00,
2013-06-09 19:15:00,69.4,53.0,30.04,WNW,285,0.0,3.0,56,0.00,,,0.00,Wunderground v.1.15,2013-06-09 23:15:00,
2013-06-09 19:20:00,68.7,53.3,30.04,WNW,285,0.0,1.0,58,0.00,,,0.00,Wunderground v.1.15,2013-06-09 23:20:00,
2013-06-09 19:25:00,68.1,55.0,30.04,WNW,285,0.0,1.0,63,0.00,,,0.00,Wunderground v.1.15,2013-06-09 23:25:00,
2013-06-09 19:30:00,66.9,55.2,30.05,WNW,285,0.0,0.0,66,0.00,,,0.00,Wunderground v.1.15,2013-06-09 23:30:00,
2013-06-09 19:35:00,65.6,55.2,30.05,WNW,285,0.0,0.0,69,0.00,,,0.00,Wunderground v.1.15,2013-06-09 23:35:00,
2013-06-09 19:40:00,64.5,54.9,30.05,WNW,285,0.0,0.0,71,0.00,,,0.00,Wunderground v.1.15,2013-06-09 23:40:00,
2013-06-09 19:45:00,63.5,55.1,30.05,WNW,285,0.0,0.0,74,0.00,,,0.00,Wunderground v.1.15,2013-06-09 23:45:00,
2013-06-09 19:50:00,62.9,55.6,30.05,WNW,285,0.0,0.0,77,0.00,,,0.00,Wunderground v.1.15,2013-06-09 23:50:00,
2013-06-09 19:55:00,62.3,55.4,30.05,WNW,285,0.0,0.0,78,0.00,,,0.00,Wunderground v.1.15,2013-06-09 23:55:00,
2013-06-09 20:00:00,61.7,55.5,30.05,WNW,285,0.0,0.0,80,0.00,,,0.00,Wunderground v.1.15,2013-06-10 00:00:00,
2013-06-09 20:05:00,60.8,55.3,30.05,WNW,285,0.0,0.0,82,0.00,,,0.00,Wunderground v.1.15,2013-06-10 00:05:00,
2013-06-09 20:10:00,60.0,55.2,30.05,ESE,102,0.0,1.0,84,0.00,,,0.00,Wunderground v.1.15,2013-06-10 00:10:00,
2013-06-09 20:15:00,59.3,54.8,30.06,ESE,102,0.0,1.0,85,0.00,,,0.00,Wunderground v.1.15,2013-06-10 00:15:00,
2013-06-09 20:20:00,58.6,54.4,30.06,ESE,102,0.0,0.0,86,0.00,,,0.00,Wunderground v.1.15,2013-06-10 00:20:00,
2013-06-09 20:25:00,58.0,54.5,30.06,ESE,102,0.0,0.0,88,0.00,,,0.00,Wunderground v.1.15,2013-06-10 00:25:00,
2013-06-09 20:30:00,57.5,54.3,30.06,ESE,102,0.0,0.0,89,0.00,,,0.00,Wunderground v.1.15,2013-06-10 00:30:00,
2013-06-09 20:35:00,56.9,53.7,30.06,ESE,102,0.0,0.0,89,0.00,,,0.00,Wunderground v.1.15,2013-06-10 00:35:00,
2013-06-09 20:40:00,56.5,53.6,30.07,ESE,102,0.0,0.0,90,0.00,,,0.00,Wunderground v.1.15,2013-06-10 00:40:00,
2013-06-09 20:45:00,56.2,53.6,30.07,ESE,102,0.0,0.0,91,0.00,,,0.00,Wunderground v.1.15,2013-06-10 00:45:00,
2013-06-09 20:50:00,55.8,53.2,30.07,ESE,102,0.0,0.0,91,0.00,,,0.00,Wunderground v.1.15,2013-06-10 00:50:00,
2013-06-09 20:55:00,55.6,53.3,30.07,ESE,102,0.0,0.0,92,0.00,,,0.00,Wunderground v.1.15,2013-06-10 00:55:00,
2013-06-09 21:00:00,55.3,53.0,30.07,ESE,102,0.0,0.0,92,0.00,,,0.00,Wunderground v.1.15,2013-06-10 01:00:00,
2013-06-09 21:05:00,54.9,52.6,30.07,East,101,0.0,0.0,92,0.00,,,0.00,Wunderground v.1.15,2013-06-10 01:05:00,
2013-06-09 21:10:00,54.6,52.6,30.08,ESE,102,0.0,0.0,93,0.00,,,0.00,Wunderground v.1.15,2013-06-10 01:10:00,
2013-06-09 21:15:00,54.3,52.3,30.08,ESE,102,0.0,0.0,93,0.00,,,0.00,Wunderground v.1.15,2013-06-10 01:15:00,
2013-06-09 21:20:00,53.9,51.9,30.08,ESE,102,0.0,0.0,93,0.00,,,0.00,Wunderground v.1.15,2013-06-10 01:20:00,
2013-06-09 21:25:00,53.7,52.0,30.08,East,101,0.0,0.0,94,0.00,,,0.00,Wunderground v.1.15,2013-06-10 01:25:00,
2013-06-09 21:30:00,53.5,51.8,30.08,ESE,102,0.0,0.0,94,0.00,,,0.00,Wunderground v.1.15,2013-06-10 01:30:00,
2013-06-09 21:35:00,53.4,51.7,30.08,ESE,102,0.0,0.0,94,0.00,,,0.00,Wunderground v.1.15,2013-06-10 01:35:00,
2013-06-09 21:40:00,53.3,51.9,30.08,East,95,1.0,2.0,95,0.00,,,0.00,Wunderground v.1.15,2013-06-10 01:40:00,
2013-06-09 21:45:00,53.2,51.5,30.09,East,95,0.0,2.0,94,0.00,,,0.00,Wunderground v.1.15,2013-06-10 01:45:00,
2013-06-09 21:50:00,52.9,51.2,30.09,East,95,1.0,1.0,94,0.00,,,0.00,Wunderground v.1.15,2013-06-10 01:50:00,
2013-06-09 21:55:00,52.7,51.3,30.09,East,98,0.0,1.0,95,0.00,,,0.00,Wunderground v.1.15,2013-06-10 01:55:00,
2013-06-09 22:00:00,52.5,50.8,30.09,East,96,0.0,1.0,94,0.00,,,0.00,Wunderground v.1.15,2013-06-10 02:00:00,
2013-06-09 22:05:00,52.3,50.9,30.09,East,97,0.0,1.0,95,0.00,,,0.00,Wunderground v.1.15,2013-06-10 02:05:00,
2013-06-09 22:10:00,52.1,50.7,30.09,East,96,0.0,0.0,95,0.00,,,0.00,Wunderground v.1.15,2013-06-10 02:10:00,
2013-06-09 22:15:00,52.1,50.7,30.09,East,96,0.0,0.0,95,0.00,,,0.00,Wunderground v.1.15,2013-06-10 02:15:00,
2013-06-09 22:20:00,52.0,50.6,30.10,East,97,1.0,1.0,95,0.00,,,0.00,Wunderground v.1.15,2013-06-10 02:20:00,
2013-06-09 22:25:00,51.8,50.4,30.10,East,97,1.0,1.0,95,0.00,,,0.00,Wunderground v.1.15,2013-06-10 02:25:00,
2013-06-09 22:30:00,51.7,50.3,30.10,East,97,0.0,0.0,95,0.00,,,0.00,Wunderground v.1.15,2013-06-10 02:30:00,
2013-06-09 22:35:00,51.6,50.2,30.10,East,95,0.0,2.0,95,0.00,,,0.00,Wunderground v.1.15,2013-06-10 02:35:00,
2013-06-09 22:40:00,51.3,49.9,30.11,East,95,0.0,0.0,95,0.00,,,0.00,Wunderground v.1.15,2013-06-10 02:40:00,
2013-06-09 22:45:00,51.2,49.8,30.11,East,95,0.0,0.0,95,0.00,,,0.00,Wunderground v.1.15,2013-06-10 02:45:00,
2013-06-09 22:50:00,51.2,50.1,30.11,East,95,0.0,0.0,96,0.00,,,0.00,Wunderground v.1.15,2013-06-10 02:50:00,
2013-06-09 22:55:00,50.9,49.5,30.11,East,95,0.0,0.0,95,0.00,,,0.00,Wunderground v.1.15,2013-06-10 02:55:00,
2013-06-09 23:00:00,51.0,49.9,30.11,East,98,0.0,0.0,96,0.00,,,0.00,Wunderground v.1.15,2013-06-10 03:00:00,
2013-06-09 23:05:00,50.9,49.8,30.11,East,97,0.0,1.0,96,0.00,,,0.00,Wunderground v.1.15,2013-06-10 03:05:00,
2013-06-09 23:10:00,50.8,49.7,30.11,East,89,0.0,1.0,96,0.00,,,0.00,Wunderground v.1.15,2013-06-10 03:10:00,
2013-06-09 23:15:00,50.7,49.6,30.11,East,89,2.0,2.0,96,0.00,,,0.00,Wunderground v.1.15,2013-06-10 03:15:00,
2013-06-09 23:21:00,50.7,49.6,30.11,East,89,2.0,3.0,96,0.00,,,0.00,Wunderground v.1.15,2013-06-10 03:21:00,
2013-06-09 23:26:00,50.6,49.5,30.11,East,89,0.0,3.0,96,0.00,,,0.00,Wunderground v.1.15,2013-06-10 03:26:00,
2013-06-09 23:31:00,50.6,49.5,30.11,East,95,0.0,1.0,96,0.00,,,0.00,Wunderground v.1.15,2013-06-10 03:31:00,
2013-06-09 23:36:00,50.5,49.4,30.11,East,99,0.0,2.0,96,0.00,,,0.00,Wunderground v.1.15,2013-06-10 03:36:00,
2013-06-09 23:41:00,50.5,49.4,30.11,East,99,0.0,0.0,96,0.00,,,0.00,Wunderground v.1.15,2013-06-10 03:41:00,
2013-06-09 23:46:00,50.4,49.3,30.11,East,99,0.0,1.0,96,0.00,,,0.00,Wunderground v.1.15,2013-06-10 03:46:00,
2013-06-09 23:51:00,50.3,49.2,30.11,East,88,1.0,2.0,96,0.00,,,0.00,Wunderground v.1.15,2013-06-10 03:51:00,
2013-06-09 23:56:00,50.3,49.2,30.11,East,89,0.0,2.0,96,0.00,,,0.00,Wunderground v.1.15,2013-06-10 03:56:00,